AirNav  
 
 1403 users online  

5S9 Valley View Airport
Estacada, Oregon, USA

GOING TO ESTACADA?


FAA INFORMATION EFFECTIVE 25 FEBRUARY 2021

Location

FAA Identifier: 5S9
Lat/Long: 45-18-29.4350N 122-19-07.3070W
45-18.490583N 122-19.121783W
45.3081764,-122.3186964
(estimated)
Elevation: 735 ft. / 224 m (estimated)
Variation: 19E (1985)
From city: 1 mile NE of ESTACADA, OR
Time zone: UTC -8 (UTC -7 during Daylight Saving Time)
Zip code: 97023

Airport Operations

Airport use: Open to the public
Activation date: 03/1975
Control tower: no
ARTCC: SEATTLE CENTER
FSS: MC MINNVILLE FLIGHT SERVICE STATION
NOTAMs facility: MMV (NOTAM-D service available)
Attendance: IREG
Pattern altitude: 1685 ft. MSL
Wind indicator: yes
Segmented circle: no
Lights: LIRL RY 16/34 OWNER'S USE ONLY.

Airport Communications

CTAF: 122.9
WX ASOS at TTD (15 nm N): 135.625 (503-492-2887)
WX ASOS at UAO (19 nm W): PHONE 503-678-3011

Nearby radio navigation aids

VOR radial/distance  VOR name  Freq  Var
UBGr075/27.9NEWBERG VOR/DME117.4021E
BTGr136/28.8BATTLE GROUND VORTAC116.6021E

 
NDB name  Hdg/Dist  Freq  Var  ID
BANKS106/36.235616EPND .--. -. -..

Airport Services

Parking: tiedowns
Bottled oxygen: NONE
Bulk oxygen: NONE

Runway Information

Runway 16/34

Dimensions: 3780 x 32 ft. / 1152 x 10 m
Surface: asphalt, in excellent condition
Runway edge lights: non-standard
NSTD LIRL - INNER 2240 FT LIGHTED.
RUNWAY 16  RUNWAY 34
Traffic pattern: leftleft
Displaced threshold: 490 ft.no
Markings: numbers only, in good conditionnumbers only, in good condition
Obstructions: 70 ft. trees, 201 ft. from runway
RWY 16 75 FT TREES AT 10-200 FT FM RWY END, 60-100 FT LEFT & RIGHT OF CNTRLN. PVT RD ACES THE ARPT THRU SAFTEY AREA AND RPZ.
65 ft. trees, 201 ft. from runway, 125 ft. left and right of centerline
40-60 FT TREES AT 150-200 FT FM RWY END AND 75-85 FT LEFT OF CNTRLN.

Airport Ownership and Management from official FAA records

Ownership: Privately-owned
Owner: 5 SIERRA 9, LLC - MICHAEL CZYZ
4136 S. LAKE PARK AVENUE
CHICAGO, IL 60653
Phone 312-953-9055
Manager: MICHAEL CZYZ
4136 S. LAKE PARK AVENUE
CHICAGO, IL 60653
Phone 312-953-9055

Airport Operational Statistics

Aircraft based on the field: 33
Single engine airplanes: 28
Multi engine airplanes: 4
Helicopters: 1
    
Aircraft operations: avg 57/week *
62% transient general aviation
38% local general aviation
* for 12-month period ending 31 July 2018

Additional Remarks

FOR CD CTC PORTLAND APCH AT 503-493-7545.
15-45 FT TREES AT 40 FT EAST OF RWY FULL LEN.

Instrument Procedures

There are no published instrument procedures at 5S9.

Some nearby airports with instrument procedures:

KTTD - Portland-Troutdale Airport (15 nm N)
KUAO - Aurora State Airport (19 nm W)
KPDX - Portland International Airport (21 nm NW)
KVUO - Pearson Field Airport (24 nm NW)
KHIO - Portland-Hillsboro Airport (30 nm NW)
 
Loc | Ops | Rwys | IFR | FBO | Links
Com | Nav | Svcs | Stats | Notes
Area around 5S9 (Valley View Airport)
 
Road maps at: MapQuest Bing Google
 
Aerial photo
WARNING: Photo may not be current or correct
Aerial photo of 5S9 (Valley View Airport)
Taken in October 2010
from ~500ft AGL from the south end, facing north.

Do you have a better or more recent aerial photo of Valley View Airport that you would like to share? If so, please send us your photo.

 
Sectional chart

 
Airport distance calculator
Flying to Valley View Airport? Find the distance to fly.

From to 5S9

Sunrise and sunset
Times for 05-Mar-2021
 Local
(UTC-8)
 Zulu
(UTC)
Morning civil twilight06:1214:12
Sunrise06:4114:41
Sunset18:0102:01
Evening civil twilight18:3002:30

Current date and time
Zulu (UTC)  05-Mar-2021 17:49:42
Local (UTC-8)  05-Mar-2021 09:49:42
 
METAR
KTTD 
15nm N 
051653Z 10005KT 10SM -RA OVC070 08/03 A2999 RMK AO2 SLP153 P0000 T00780033 $
KUAO 
19nm W 
051653Z 18005KT 3SM -RA BR BKN050 OVC060 06/05 A2998 RMK AO2 RAB24 SLP153 P0003 T00610050
KPDX 
20nm NW 
051653Z 11009KT 10SM -RA BKN065 OVC090 08/04 A2997 RMK AO2 RAE19B37 SLP148 P0000 T00780039
KVUO 
23nm NW 
051653Z AUTO VRB04KT 9SM -RA SCT050 OVC070 09/03 A2996 RMK AO2 SLP146 P0001 T00890028
TAF
NOTAMs
Click for the latest NOTAMs
NOTAMs are issued by the DoD/FAA and will open in a separate window not controlled by AirNav.

 

 
 

Would you like to see your business listed on this page?

 If your business provides an interesting product or service to pilots, flight crews, aircraft, or users of the Valley View Airport, you should consider listing it here.  To start the listing process, click on the button below
 
Add a business
 

Other Pages about Valley View Airport

Update a link
 
Copyright © AirNav, LLC. All rights reserved. Privacy Policy  Contact